sensor_id;sensor_type;location;lat;lon;timestamp;temperature;humidity
2687;DHT22;1353;51.386;7.028;2022-09-17T00:01:04;9.30;99.90
2687;DHT22;1353;51.386;7.028;2022-09-17T00:03:31;9.30;99.90
2687;DHT22;1353;51.386;7.028;2022-09-17T00:06:00;9.30;99.90
2687;DHT22;1353;51.386;7.028;2022-09-17T00:08:28;9.30;99.90
2687;DHT22;1353;51.386;7.028;2022-09-17T00:10:55;9.30;99.90
2687;DHT22;1353;51.386;7.028;2022-09-17T00:13:22;9.30;99.90
2687;DHT22;1353;51.386;7.028;2022-09-17T00:15:50;9.30;99.90
2687;DHT22;1353;51.386;7.028;2022-09-17T00:18:18;9.30;99.90
2687;DHT22;1353;51.386;7.028;2022-09-17T00:20:46;9.30;99.90
2687;DHT22;1353;51.386;7.028;2022-09-17T00:23:13;9.30;99.90
2687;DHT22;1353;51.386;7.028;2022-09-17T00:25:42;9.30;99.90
2687;DHT22;1353;51.386;7.028;2022-09-17T00:28:09;9.30;99.90
2687;DHT22;1353;51.386;7.028;2022-09-17T00:30:38;9.30;99.90
2687;DHT22;1353;51.386;7.028;2022-09-17T00:33:07;9.30;99.90
2687;DHT22;1353;51.386;7.028;2022-09-17T00:35:34;9.30;99.90
2687;DHT22;1353;51.386;7.028;2022-09-17T00:38:01;9.30;99.90
2687;DHT22;1353;51.386;7.028;2022-09-17T00:40:28;9.30;99.90
2687;DHT22;1353;51.386;7.028;2022-09-17T00:42:55;9.30;99.90
2687;DHT22;1353;51.386;7.028;2022-09-17T00:45:22;9.30;99.90
2687;DHT22;1353;51.386;7.028;2022-09-17T00:47:52;9.30;99.90
2687;DHT22;1353;51.386;7.028;2022-09-17T00:50:25;9.30;99.90
2687;DHT22;1353;51.386;7.028;2022-09-17T00:52:55;9.30;99.90
2687;DHT22;1353;51.386;7.028;2022-09-17T00:55:25;9.30;99.90
2687;DHT22;1353;51.386;7.028;2022-09-17T00:57:55;9.30;99.90
2687;DHT22;1353;51.386;7.028;2022-09-17T01:00:23;9.30;99.90
2687;DHT22;1353;51.386;7.028;2022-09-17T01:02:51;9.30;99.90
2687;DHT22;1353;51.386;7.028;2022-09-17T01:05:26;9.30;99.90
2687;DHT22;1353;51.386;7.028;2022-09-17T01:08:03;9.30;99.90
2687;DHT22;1353;51.386;7.028;2022-09-17T01:10:49;9.30;99.90
2687;DHT22;1353;51.386;7.028;2022-09-17T01:13:30;9.30;99.90
2687;DHT22;1353;51.386;7.028;2022-09-17T01:16:05;9.30;99.90
2687;DHT22;1353;51.386;7.028;2022-09-17T01:18:54;9.20;99.90
2687;DHT22;1353;51.386;7.028;2022-09-17T01:21:39;9.30;99.90
2687;DHT22;1353;51.386;7.028;2022-09-17T01:27:53;9.20;99.90
2687;DHT22;1353;51.386;7.028;2022-09-17T01:30:33;9.10;99.90
2687;DHT22;1353;51.386;7.028;2022-09-17T01:33:06;9.00;99.90
2687;DHT22;1353;51.386;7.028;2022-09-17T01:35:42;9.00;99.90
2687;DHT22;1353;51.386;7.028;2022-09-17T01:38:16;8.90;99.90
2687;DHT22;1353;51.386;7.028;2022-09-17T01:40:49;8.90;99.90
2687;DHT22;1353;51.386;7.028;2022-09-17T01:43:21;8.90;99.90
2687;DHT22;1353;51.386;7.028;2022-09-17T01:45:51;8.90;99.90
2687;DHT22;1353;51.386;7.028;2022-09-17T01:48:24;8.80;99.90
2687;DHT22;1353;51.386;7.028;2022-09-17T01:50:55;8.80;99.90
2687;DHT22;1353;51.386;7.028;2022-09-17T01:53:24;8.80;99.90
2687;DHT22;1353;51.386;7.028;2022-09-17T01:55:54;8.80;99.90
2687;DHT22;1353;51.386;7.028;2022-09-17T01:58:26;8.90;99.90
2687;DHT22;1353;51.386;7.028;2022-09-17T02:00:58;9.00;99.90
2687;DHT22;1353;51.386;7.028;2022-09-17T02:03:29;9.00;99.90
2687;DHT22;1353;51.386;7.028;2022-09-17T02:06:01;9.00;99.90
2687;DHT22;1353;51.386;7.028;2022-09-17T02:08:34;9.00;99.90
2687;DHT22;1353;51.386;7.028;2022-09-17T02:11:05;9.10;99.90
2687;DHT22;1353;51.386;7.028;2022-09-17T02:13:37;9.10;99.90
2687;DHT22;1353;51.386;7.028;2022-09-17T02:16:11;9.10;99.90
2687;DHT22;1353;51.386;7.028;2022-09-17T02:18:42;9.10;99.90
2687;DHT22;1353;51.386;7.028;2022-09-17T02:21:14;9.20;99.90
2687;DHT22;1353;51.386;7.028;2022-09-17T02:23:46;9.10;99.90
2687;DHT22;1353;51.386;7.028;2022-09-17T02:26:16;9.20;99.90
2687;DHT22;1353;51.386;7.028;2022-09-17T02:28:46;9.20;99.90
2687;DHT22;1353;51.386;7.028;2022-09-17T02:31:16;9.20;99.90
2687;DHT22;1353;51.386;7.028;2022-09-17T02:33:47;9.10;99.90
2687;DHT22;1353;51.386;7.028;2022-09-17T02:36:14;9.20;99.90
2687;DHT22;1353;51.386;7.028;2022-09-17T02:38:43;9.10;99.90
2687;DHT22;1353;51.386;7.028;2022-09-17T02:41:15;9.10;99.90
2687;DHT22;1353;51.386;7.028;2022-09-17T02:43:50;9.10;99.90
2687;DHT22;1353;51.386;7.028;2022-09-17T02:46:42;9.10;99.90
2687;DHT22;1353;51.386;7.028;2022-09-17T02:49:26;9.10;99.90
2687;DHT22;1353;51.386;7.028;2022-09-17T02:52:05;9.10;99.90
2687;DHT22;1353;51.386;7.028;2022-09-17T02:54:39;9.10;99.90
2687;DHT22;1353;51.386;7.028;2022-09-17T02:57:14;9.00;99.90
2687;DHT22;1353;51.386;7.028;2022-09-17T02:59:58;9.00;99.90
2687;DHT22;1353;51.386;7.028;2022-09-17T03:02:34;9.00;99.90
2687;DHT22;1353;51.386;7.028;2022-09-17T03:05:03;8.90;99.90
2687;DHT22;1353;51.386;7.028;2022-09-17T03:07:31;8.90;99.90
2687;DHT22;1353;51.386;7.028;2022-09-17T03:09:58;8.80;99.90
2687;DHT22;1353;51.386;7.028;2022-09-17T03:12:25;8.70;99.90
2687;DHT22;1353;51.386;7.028;2022-09-17T03:14:52;8.80;99.90
2687;DHT22;1353;51.386;7.028;2022-09-17T03:17:19;8.70;99.90
2687;DHT22;1353;51.386;7.028;2022-09-17T03:19:47;8.70;99.90
2687;DHT22;1353;51.386;7.028;2022-09-17T03:22:13;8.70;99.90
2687;DHT22;1353;51.386;7.028;2022-09-17T03:24:40;8.70;99.90
2687;DHT22;1353;51.386;7.028;2022-09-17T03:27:07;8.80;99.90
2687;DHT22;1353;51.386;7.028;2022-09-17T03:29:33;8.90;99.90
2687;DHT22;1353;51.386;7.028;2022-09-17T03:32:01;8.80;99.90
2687;DHT22;1353;51.386;7.028;2022-09-17T03:34:27;8.90;99.90
2687;DHT22;1353;51.386;7.028;2022-09-17T03:36:55;8.90;99.90
2687;DHT22;1353;51.386;7.028;2022-09-17T03:39:22;9.00;99.90
2687;DHT22;1353;51.386;7.028;2022-09-17T03:41:49;9.00;99.90
2687;DHT22;1353;51.386;7.028;2022-09-17T03:44:16;9.00;99.90
2687;DHT22;1353;51.386;7.028;2022-09-17T03:46:43;9.00;99.90
2687;DHT22;1353;51.386;7.028;2022-09-17T03:49:10;9.00;99.90
2687;DHT22;1353;51.386;7.028;2022-09-17T03:51:37;9.10;99.90
2687;DHT22;1353;51.386;7.028;2022-09-17T03:54:06;9.10;99.90
2687;DHT22;1353;51.386;7.028;2022-09-17T03:56:32;9.10;99.90
2687;DHT22;1353;51.386;7.028;2022-09-17T03:59:00;9.10;99.90
2687;DHT22;1353;51.386;7.028;2022-09-17T04:01:28;9.10;99.90
2687;DHT22;1353;51.386;7.028;2022-09-17T04:03:55;9.10;99.90
2687;DHT22;1353;51.386;7.028;2022-09-17T04:06:22;9.20;99.90
2687;DHT22;1353;51.386;7.028;2022-09-17T04:08:48;9.20;99.90
2687;DHT22;1353;51.386;7.028;2022-09-17T04:11:16;9.20;99.90
2687;DHT22;1353;51.386;7.028;2022-09-17T04:13:43;9.10;99.90
2687;DHT22;1353;51.386;7.028;2022-09-17T04:16:10;9.20;99.90
2687;DHT22;1353;51.386;7.028;2022-09-17T04:18:37;9.20;99.90
2687;DHT22;1353;51.386;7.028;2022-09-17T04:21:04;9.10;99.90
2687;DHT22;1353;51.386;7.028;2022-09-17T04:23:31;9.10;99.90
2687;DHT22;1353;51.386;7.028;2022-09-17T04:25:58;9.10;99.90
2687;DHT22;1353;51.386;7.028;2022-09-17T04:28:26;9.00;99.90
2687;DHT22;1353;51.386;7.028;2022-09-17T04:30:53;8.90;99.90
2687;DHT22;1353;51.386;7.028;2022-09-17T04:33:20;9.00;99.90
2687;DHT22;1353;51.386;7.028;2022-09-17T04:35:46;9.00;99.90
2687;DHT22;1353;51.386;7.028;2022-09-17T04:38:13;8.90;99.90
2687;DHT22;1353;51.386;7.028;2022-09-17T04:40:45;9.00;99.90
2687;DHT22;1353;51.386;7.028;2022-09-17T04:43:12;9.00;99.90
2687;DHT22;1353;51.386;7.028;2022-09-17T04:45:40;9.10;99.90
2687;DHT22;1353;51.386;7.028;2022-09-17T04:48:07;9.10;99.90
2687;DHT22;1353;51.386;7.028;2022-09-17T04:50:33;9.10;99.90
2687;DHT22;1353;51.386;7.028;2022-09-17T04:53:00;9.20;99.90
2687;DHT22;1353;51.386;7.028;2022-09-17T04:55:27;9.20;99.90
2687;DHT22;1353;51.386;7.028;2022-09-17T04:57:55;9.20;99.90
2687;DHT22;1353;51.386;7.028;2022-09-17T05:00:23;9.30;99.90
2687;DHT22;1353;51.386;7.028;2022-09-17T05:02:52;9.30;99.90
2687;DHT22;1353;51.386;7.028;2022-09-17T05:05:20;9.30;99.90
2687;DHT22;1353;51.386;7.028;2022-09-17T05:07:47;9.30;99.90
2687;DHT22;1353;51.386;7.028;2022-09-17T05:10:15;9.20;99.90
2687;DHT22;1353;51.386;7.028;2022-09-17T05:12:47;9.20;99.90
2687;DHT22;1353;51.386;7.028;2022-09-17T05:15:14;9.20;99.90
2687;DHT22;1353;51.386;7.028;2022-09-17T05:17:40;9.10;99.90
2687;DHT22;1353;51.386;7.028;2022-09-17T05:20:09;9.00;99.90
2687;DHT22;1353;51.386;7.028;2022-09-17T05:22:40;8.90;99.90
2687;DHT22;1353;51.386;7.028;2022-09-17T05:25:07;8.80;99.90
2687;DHT22;1353;51.386;7.028;2022-09-17T05:27:34;8.90;99.90
2687;DHT22;1353;51.386;7.028;2022-09-17T05:30:01;8.90;99.90
2687;DHT22;1353;51.386;7.028;2022-09-17T05:32:28;8.90;99.90
2687;DHT22;1353;51.386;7.028;2022-09-17T05:34:55;9.00;99.90
2687;DHT22;1353;51.386;7.028;2022-09-17T05:37:23;9.10;99.90
2687;DHT22;1353;51.386;7.028;2022-09-17T05:39:50;9.20;99.90
2687;DHT22;1353;51.386;7.028;2022-09-17T05:42:17;9.20;99.90
2687;DHT22;1353;51.386;7.028;2022-09-17T05:44:44;9.50;99.90
2687;DHT22;1353;51.386;7.028;2022-09-17T05:47:10;9.90;99.90
2687;DHT22;1353;51.386;7.028;2022-09-17T05:49:37;10.20;99.90
2687;DHT22;1353;51.386;7.028;2022-09-17T05:52:04;10.30;99.90
2687;DHT22;1353;51.386;7.028;2022-09-17T05:54:32;10.20;99.90
2687;DHT22;1353;51.386;7.028;2022-09-17T05:56:59;9.90;99.90
2687;DHT22;1353;51.386;7.028;2022-09-17T05:59:26;9.70;99.90
2687;DHT22;1353;51.386;7.028;2022-09-17T06:01:53;9.70;99.90
2687;DHT22;1353;51.386;7.028;2022-09-17T06:04:20;9.70;99.90
2687;DHT22;1353;51.386;7.028;2022-09-17T06:06:46;9.70;99.90
2687;DHT22;1353;51.386;7.028;2022-09-17T06:09:13;9.60;99.90
2687;DHT22;1353;51.386;7.028;2022-09-17T06:11:41;9.70;99.90
2687;DHT22;1353;51.386;7.028;2022-09-17T06:14:08;9.80;99.90
2687;DHT22;1353;51.386;7.028;2022-09-17T06:16:35;9.90;99.90
2687;DHT22;1353;51.386;7.028;2022-09-17T06:19:02;10.00;99.90
2687;DHT22;1353;51.386;7.028;2022-09-17T06:21:29;10.90;99.90
2687;DHT22;1353;51.386;7.028;2022-09-17T06:23:56;11.40;99.90
2687;DHT22;1353;51.386;7.028;2022-09-17T06:26:22;10.80;99.90
2687;DHT22;1353;51.386;7.028;2022-09-17T06:28:50;10.50;99.90
2687;DHT22;1353;51.386;7.028;2022-09-17T06:31:17;10.20;99.90
2687;DHT22;1353;51.386;7.028;2022-09-17T06:33:44;10.00;99.90
2687;DHT22;1353;51.386;7.028;2022-09-17T06:36:12;9.90;99.90
2687;DHT22;1353;51.386;7.028;2022-09-17T06:38:39;9.90;99.90
2687;DHT22;1353;51.386;7.028;2022-09-17T06:41:06;9.70;99.90
2687;DHT22;1353;51.386;7.028;2022-09-17T06:43:33;9.90;99.90
2687;DHT22;1353;51.386;7.028;2022-09-17T06:46:03;9.80;99.90
2687;DHT22;1353;51.386;7.028;2022-09-17T06:48:33;9.70;99.90
2687;DHT22;1353;51.386;7.028;2022-09-17T06:51:01;9.70;99.90
2687;DHT22;1353;51.386;7.028;2022-09-17T06:53:28;9.70;99.90
2687;DHT22;1353;51.386;7.028;2022-09-17T06:55:56;9.90;99.90
2687;DHT22;1353;51.386;7.028;2022-09-17T06:58:23;9.80;99.90
2687;DHT22;1353;51.386;7.028;2022-09-17T07:00:50;9.80;99.90
2687;DHT22;1353;51.386;7.028;2022-09-17T07:03:18;9.80;99.90
2687;DHT22;1353;51.386;7.028;2022-09-17T07:05:44;9.80;99.90
2687;DHT22;1353;51.386;7.028;2022-09-17T07:08:11;9.90;99.90
2687;DHT22;1353;51.386;7.028;2022-09-17T07:10:38;10.10;99.90
2687;DHT22;1353;51.386;7.028;2022-09-17T07:13:05;10.50;99.90
2687;DHT22;1353;51.386;7.028;2022-09-17T07:15:31;10.60;99.90
2687;DHT22;1353;51.386;7.028;2022-09-17T07:17:58;10.80;99.90
2687;DHT22;1353;51.386;7.028;2022-09-17T07:20:28;11.10;99.90
2687;DHT22;1353;51.386;7.028;2022-09-17T07:22:55;11.40;99.90
2687;DHT22;1353;51.386;7.028;2022-09-17T07:25:22;13.00;99.90
2687;DHT22;1353;51.386;7.028;2022-09-17T07:27:50;14.30;99.90
2687;DHT22;1353;51.386;7.028;2022-09-17T07:30:17;14.60;99.90
2687;DHT22;1353;51.386;7.028;2022-09-17T07:32:43;15.50;99.90
2687;DHT22;1353;51.386;7.028;2022-09-17T07:35:10;14.50;99.90
2687;DHT22;1353;51.386;7.028;2022-09-17T07:37:38;13.40;99.90
2687;DHT22;1353;51.386;7.028;2022-09-17T07:40:06;14.00;99.90
2687;DHT22;1353;51.386;7.028;2022-09-17T07:42:33;14.10;99.90
2687;DHT22;1353;51.386;7.028;2022-09-17T07:45:00;13.80;99.90
2687;DHT22;1353;51.386;7.028;2022-09-17T07:47:27;13.20;99.90
2687;DHT22;1353;51.386;7.028;2022-09-17T07:49:53;12.90;99.90
2687;DHT22;1353;51.386;7.028;2022-09-17T07:52:20;12.50;99.90
2687;DHT22;1353;51.386;7.028;2022-09-17T07:54:48;12.50;99.90
2687;DHT22;1353;51.386;7.028;2022-09-17T07:57:15;12.60;99.90
2687;DHT22;1353;51.386;7.028;2022-09-17T07:59:42;13.00;99.90
2687;DHT22;1353;51.386;7.028;2022-09-17T08:02:10;15.00;99.90
2687;DHT22;1353;51.386;7.028;2022-09-17T08:04:37;15.80;99.90
2687;DHT22;1353;51.386;7.028;2022-09-17T08:07:04;16.60;99.90
2687;DHT22;1353;51.386;7.028;2022-09-17T08:09:31;16.90;99.90
2687;DHT22;1353;51.386;7.028;2022-09-17T08:11:59;16.60;99.90
2687;DHT22;1353;51.386;7.028;2022-09-17T08:14:26;17.10;99.90
2687;DHT22;1353;51.386;7.028;2022-09-17T08:16:52;17.10;99.90
2687;DHT22;1353;51.386;7.028;2022-09-17T08:19:19;16.60;99.90
2687;DHT22;1353;51.386;7.028;2022-09-17T08:21:49;16.60;99.90
2687;DHT22;1353;51.386;7.028;2022-09-17T08:24:16;16.90;99.90
2687;DHT22;1353;51.386;7.028;2022-09-17T08:26:43;16.80;99.90
2687;DHT22;1353;51.386;7.028;2022-09-17T08:29:11;17.50;99.90
2687;DHT22;1353;51.386;7.028;2022-09-17T08:31:38;16.80;99.90
2687;DHT22;1353;51.386;7.028;2022-09-17T08:34:06;15.80;99.90
2687;DHT22;1353;51.386;7.028;2022-09-17T08:36:34;17.20;99.90
2687;DHT22;1353;51.386;7.028;2022-09-17T08:39:01;17.40;99.90
2687;DHT22;1353;51.386;7.028;2022-09-17T08:41:41;17.60;99.90
2687;DHT22;1353;51.386;7.028;2022-09-17T08:44:20;17.50;99.90
2687;DHT22;1353;51.386;7.028;2022-09-17T08:46:50;16.50;99.90
2687;DHT22;1353;51.386;7.028;2022-09-17T08:49:25;17.60;99.90
2687;DHT22;1353;51.386;7.028;2022-09-17T08:55:03;15.90;99.90
2687;DHT22;1353;51.386;7.028;2022-09-17T08:57:36;16.70;99.90
2687;DHT22;1353;51.386;7.028;2022-09-17T09:00:11;16.30;99.90
2687;DHT22;1353;51.386;7.028;2022-09-17T09:02:51;16.90;99.90
2687;DHT22;1353;51.386;7.028;2022-09-17T09:05:23;16.40;99.90
2687;DHT22;1353;51.386;7.028;2022-09-17T09:07:54;17.20;99.90
2687;DHT22;1353;51.386;7.028;2022-09-17T09:10:25;16.00;99.90
2687;DHT22;1353;51.386;7.028;2022-09-17T09:12:54;16.40;99.90
2687;DHT22;1353;51.386;7.028;2022-09-17T09:15:30;16.70;99.90
2687;DHT22;1353;51.386;7.028;2022-09-17T09:18:00;16.10;99.90
2687;DHT22;1353;51.386;7.028;2022-09-17T09:20:34;16.10;99.90
2687;DHT22;1353;51.386;7.028;2022-09-17T09:23:09;15.90;99.90
2687;DHT22;1353;51.386;7.028;2022-09-17T09:25:51;16.90;99.90
2687;DHT22;1353;51.386;7.028;2022-09-17T09:28:31;16.70;99.90
2687;DHT22;1353;51.386;7.028;2022-09-17T09:31:12;17.30;99.90
2687;DHT22;1353;51.386;7.028;2022-09-17T09:33:43;16.30;99.90
2687;DHT22;1353;51.386;7.028;2022-09-17T09:36:13;16.20;99.90
2687;DHT22;1353;51.386;7.028;2022-09-17T09:38:44;16.30;99.90
2687;DHT22;1353;51.386;7.028;2022-09-17T09:41:17;16.60;99.90
2687;DHT22;1353;51.386;7.028;2022-09-17T09:43:46;16.70;99.90
2687;DHT22;1353;51.386;7.028;2022-09-17T09:46:29;15.30;99.90
2687;DHT22;1353;51.386;7.028;2022-09-17T09:49:07;14.90;99.90
2687;DHT22;1353;51.386;7.028;2022-09-17T09:51:43;14.40;99.90
2687;DHT22;1353;51.386;7.028;2022-09-17T09:54:26;14.60;99.90
2687;DHT22;1353;51.386;7.028;2022-09-17T09:56:57;17.00;99.90
2687;DHT22;1353;51.386;7.028;2022-09-17T09:59:24;18.30;99.90
2687;DHT22;1353;51.386;7.028;2022-09-17T10:01:53;18.80;99.90
2687;DHT22;1353;51.386;7.028;2022-09-17T10:04:21;17.00;99.90
2687;DHT22;1353;51.386;7.028;2022-09-17T10:06:50;16.10;99.90
2687;DHT22;1353;51.386;7.028;2022-09-17T10:09:18;14.40;99.90
2687;DHT22;1353;51.386;7.028;2022-09-17T10:12:00;11.10;99.90
2687;DHT22;1353;51.386;7.028;2022-09-17T10:14:28;10.40;99.90
2687;DHT22;1353;51.386;7.028;2022-09-17T10:17:18;10.60;99.90
2687;DHT22;1353;51.386;7.028;2022-09-17T10:19:46;10.80;99.90
2687;DHT22;1353;51.386;7.028;2022-09-17T10:22:35;10.70;99.90
2687;DHT22;1353;51.386;7.028;2022-09-17T10:25:05;10.70;99.90
2687;DHT22;1353;51.386;7.028;2022-09-17T10:27:33;10.60;99.90
2687;DHT22;1353;51.386;7.028;2022-09-17T10:30:12;10.80;99.90
2687;DHT22;1353;51.386;7.028;2022-09-17T10:32:41;11.00;99.90
2687;DHT22;1353;51.386;7.028;2022-09-17T10:35:24;10.90;99.90
2687;DHT22;1353;51.386;7.028;2022-09-17T10:37:52;11.00;99.90
2687;DHT22;1353;51.386;7.028;2022-09-17T10:40:25;11.20;99.90
2687;DHT22;1353;51.386;7.028;2022-09-17T10:43:17;11.50;99.90
2687;DHT22;1353;51.386;7.028;2022-09-17T10:45:53;12.10;99.90
2687;DHT22;1353;51.386;7.028;2022-09-17T10:48:22;11.90;99.90
2687;DHT22;1353;51.386;7.028;2022-09-17T10:50:52;13.90;99.90
2687;DHT22;1353;51.386;7.028;2022-09-17T10:53:20;15.80;99.90
2687;DHT22;1353;51.386;7.028;2022-09-17T10:55:50;16.50;99.90
2687;DHT22;1353;51.386;7.028;2022-09-17T10:58:33;16.90;99.90
2687;DHT22;1353;51.386;7.028;2022-09-17T11:01:09;15.40;99.90
2687;DHT22;1353;51.386;7.028;2022-09-17T11:04:01;15.00;99.90
2687;DHT22;1353;51.386;7.028;2022-09-17T11:06:53;14.90;99.90
2687;DHT22;1353;51.386;7.028;2022-09-17T11:09:29;14.00;99.90
2687;DHT22;1353;51.386;7.028;2022-09-17T11:12:12;14.00;99.90
2687;DHT22;1353;51.386;7.028;2022-09-17T11:14:49;14.70;99.90
2687;DHT22;1353;51.386;7.028;2022-09-17T11:20:36;14.60;99.90
2687;DHT22;1353;51.386;7.028;2022-09-17T11:23:23;11.90;99.90
2687;DHT22;1353;51.386;7.028;2022-09-17T11:25:54;10.40;99.90
2687;DHT22;1353;51.386;7.028;2022-09-17T11:28:41;9.40;99.90
2687;DHT22;1353;51.386;7.028;2022-09-17T11:31:23;9.40;99.90
2687;DHT22;1353;51.386;7.028;2022-09-17T11:34:11;9.20;99.90
2687;DHT22;1353;51.386;7.028;2022-09-17T11:36:49;9.00;99.90
2687;DHT22;1353;51.386;7.028;2022-09-17T11:39:21;9.10;99.90
2687;DHT22;1353;51.386;7.028;2022-09-17T11:41:50;9.40;99.90
2687;DHT22;1353;51.386;7.028;2022-09-17T11:44:23;10.10;99.90
2687;DHT22;1353;51.386;7.028;2022-09-17T11:46:53;10.10;99.90
2687;DHT22;1353;51.386;7.028;2022-09-17T11:49:26;9.70;99.90
2687;DHT22;1353;51.386;7.028;2022-09-17T11:51:59;9.70;99.90
2687;DHT22;1353;51.386;7.028;2022-09-17T11:54:30;9.90;99.90
2687;DHT22;1353;51.386;7.028;2022-09-17T11:57:05;10.20;99.90
2687;DHT22;1353;51.386;7.028;2022-09-17T11:59:41;10.00;99.90
2687;DHT22;1353;51.386;7.028;2022-09-17T12:02:16;10.60;99.90
2687;DHT22;1353;51.386;7.028;2022-09-17T12:04:51;10.60;99.90
2687;DHT22;1353;51.386;7.028;2022-09-17T12:07:40;10.00;99.90
2687;DHT22;1353;51.386;7.028;2022-09-17T12:10:34;10.60;99.90
2687;DHT22;1353;51.386;7.028;2022-09-17T12:13:09;11.30;99.90
2687;DHT22;1353;51.386;7.028;2022-09-17T12:15:42;11.50;99.90
2687;DHT22;1353;51.386;7.028;2022-09-17T12:18:19;10.90;99.90
2687;DHT22;1353;51.386;7.028;2022-09-17T12:20:51;11.10;99.90
2687;DHT22;1353;51.386;7.028;2022-09-17T12:23:27;12.00;99.90
2687;DHT22;1353;51.386;7.028;2022-09-17T12:26:03;12.20;99.90
2687;DHT22;1353;51.386;7.028;2022-09-17T12:28:38;11.60;99.90
2687;DHT22;1353;51.386;7.028;2022-09-17T12:31:11;11.30;99.90
2687;DHT22;1353;51.386;7.028;2022-09-17T12:33:44;11.00;99.90
2687;DHT22;1353;51.386;7.028;2022-09-17T12:36:26;10.60;99.90
2687;DHT22;1353;51.386;7.028;2022-09-17T12:39:16;10.60;99.90
2687;DHT22;1353;51.386;7.028;2022-09-17T12:41:51;10.00;99.90
2687;DHT22;1353;51.386;7.028;2022-09-17T12:44:35;10.10;99.90
2687;DHT22;1353;51.386;7.028;2022-09-17T12:47:21;10.10;99.90
2687;DHT22;1353;51.386;7.028;2022-09-17T12:50:13;10.80;99.90
2687;DHT22;1353;51.386;7.028;2022-09-17T12:52:52;10.70;99.90
2687;DHT22;1353;51.386;7.028;2022-09-17T12:55:43;11.20;99.90
2687;DHT22;1353;51.386;7.028;2022-09-17T12:58:22;11.10;99.90
2687;DHT22;1353;51.386;7.028;2022-09-17T13:00:54;11.20;99.90
2687;DHT22;1353;51.386;7.028;2022-09-17T13:03:26;11.20;99.90
2687;DHT22;1353;51.386;7.028;2022-09-17T13:06:13;11.60;99.90
2687;DHT22;1353;51.386;7.028;2022-09-17T13:09:13;11.70;99.90
2687;DHT22;1353;51.386;7.028;2022-09-17T13:12:03;11.80;99.90
2687;DHT22;1353;51.386;7.028;2022-09-17T13:14:53;11.90;99.90
2687;DHT22;1353;51.386;7.028;2022-09-17T13:17:27;12.00;99.90
2687;DHT22;1353;51.386;7.028;2022-09-17T13:20:02;12.00;99.90
2687;DHT22;1353;51.386;7.028;2022-09-17T13:22:31;12.00;99.90
2687;DHT22;1353;51.386;7.028;2022-09-17T13:25:04;12.20;99.90
2687;DHT22;1353;51.386;7.028;2022-09-17T13:27:34;12.30;99.90
2687;DHT22;1353;51.386;7.028;2022-09-17T13:30:03;12.40;99.90
2687;DHT22;1353;51.386;7.028;2022-09-17T13:32:47;12.20;99.90
2687;DHT22;1353;51.386;7.028;2022-09-17T13:35:46;12.40;99.90
2687;DHT22;1353;51.386;7.028;2022-09-17T13:38:13;12.70;99.90
2687;DHT22;1353;51.386;7.028;2022-09-17T13:40:40;12.60;99.90
2687;DHT22;1353;51.386;7.028;2022-09-17T13:43:10;12.90;99.90
2687;DHT22;1353;51.386;7.028;2022-09-17T13:46:04;12.70;99.90
2687;DHT22;1353;51.386;7.028;2022-09-17T13:48:36;12.60;99.90
2687;DHT22;1353;51.386;7.028;2022-09-17T13:54:35;12.30;99.90
2687;DHT22;1353;51.386;7.028;2022-09-17T13:57:10;10.00;99.90
2687;DHT22;1353;51.386;7.028;2022-09-17T13:59:51;9.30;99.90
2687;DHT22;1353;51.386;7.028;2022-09-17T14:02:36;9.00;99.90
2687;DHT22;1353;51.386;7.028;2022-09-17T14:05:33;8.90;99.90
2687;DHT22;1353;51.386;7.028;2022-09-17T14:08:26;8.90;99.90
2687;DHT22;1353;51.386;7.028;2022-09-17T14:11:01;9.20;99.90
2687;DHT22;1353;51.386;7.028;2022-09-17T14:13:42;9.40;99.90
2687;DHT22;1353;51.386;7.028;2022-09-17T14:16:34;9.60;99.90
2687;DHT22;1353;51.386;7.028;2022-09-17T14:19:22;9.90;99.90
2687;DHT22;1353;51.386;7.028;2022-09-17T14:21:58;10.20;99.90
2687;DHT22;1353;51.386;7.028;2022-09-17T14:24:29;10.20;99.90
2687;DHT22;1353;51.386;7.028;2022-09-17T14:27:12;10.20;99.90
2687;DHT22;1353;51.386;7.028;2022-09-17T14:30:02;10.40;99.90
2687;DHT22;1353;51.386;7.028;2022-09-17T14:32:36;10.30;99.90
2687;DHT22;1353;51.386;7.028;2022-09-17T14:35:14;10.50;99.90
2687;DHT22;1353;51.386;7.028;2022-09-17T14:37:42;10.50;99.90
2687;DHT22;1353;51.386;7.028;2022-09-17T14:40:15;10.60;99.90
2687;DHT22;1353;51.386;7.028;2022-09-17T14:42:43;10.80;99.90
2687;DHT22;1353;51.386;7.028;2022-09-17T14:45:15;10.70;99.90
2687;DHT22;1353;51.386;7.028;2022-09-17T14:47:44;10.90;99.90
2687;DHT22;1353;51.386;7.028;2022-09-17T14:50:20;10.70;99.90
2687;DHT22;1353;51.386;7.028;2022-09-17T14:52:47;10.60;99.90
2687;DHT22;1353;51.386;7.028;2022-09-17T14:55:19;10.70;99.90
2687;DHT22;1353;51.386;7.028;2022-09-17T14:57:49;10.90;99.90
2687;DHT22;1353;51.386;7.028;2022-09-17T15:00:19;10.90;99.90
2687;DHT22;1353;51.386;7.028;2022-09-17T15:02:51;10.90;99.90
2687;DHT22;1353;51.386;7.028;2022-09-17T15:05:22;10.70;99.90
2687;DHT22;1353;51.386;7.028;2022-09-17T15:07:50;11.00;99.90
2687;DHT22;1353;51.386;7.028;2022-09-17T15:10:19;10.90;99.90
2687;DHT22;1353;51.386;7.028;2022-09-17T15:12:48;10.50;99.90
2687;DHT22;1353;51.386;7.028;2022-09-17T15:15:20;10.40;99.90
2687;DHT22;1353;51.386;7.028;2022-09-17T15:17:50;10.50;99.90
2687;DHT22;1353;51.386;7.028;2022-09-17T15:20:19;10.40;99.90
2687;DHT22;1353;51.386;7.028;2022-09-17T15:22:51;10.50;99.90
2687;DHT22;1353;51.386;7.028;2022-09-17T15:25:21;10.60;99.90
2687;DHT22;1353;51.386;7.028;2022-09-17T15:27:51;10.80;99.90
2687;DHT22;1353;51.386;7.028;2022-09-17T15:30:21;10.90;99.90
2687;DHT22;1353;51.386;7.028;2022-09-17T15:32:50;11.00;99.90
2687;DHT22;1353;51.386;7.028;2022-09-17T15:35:23;11.00;99.90
2687;DHT22;1353;51.386;7.028;2022-09-17T15:37:54;10.90;99.90
2687;DHT22;1353;51.386;7.028;2022-09-17T15:40:29;10.90;99.90
2687;DHT22;1353;51.386;7.028;2022-09-17T15:43:04;11.00;99.90
2687;DHT22;1353;51.386;7.028;2022-09-17T15:45:39;11.40;99.90
2687;DHT22;1353;51.386;7.028;2022-09-17T15:48:21;11.40;99.90
2687;DHT22;1353;51.386;7.028;2022-09-17T15:50:51;11.60;99.90
2687;DHT22;1353;51.386;7.028;2022-09-17T15:53:22;11.60;99.90
2687;DHT22;1353;51.386;7.028;2022-09-17T15:56:02;10.80;99.90
2687;DHT22;1353;51.386;7.028;2022-09-17T15:58:35;9.90;99.90
2687;DHT22;1353;51.386;7.028;2022-09-17T16:04:22;9.70;99.90
2687;DHT22;1353;51.386;7.028;2022-09-17T16:07:21;9.50;99.90
2687;DHT22;1353;51.386;7.028;2022-09-17T16:09:50;9.60;99.90
2687;DHT22;1353;51.386;7.028;2022-09-17T16:12:19;9.60;99.90
2687;DHT22;1353;51.386;7.028;2022-09-17T16:14:48;9.60;99.90
2687;DHT22;1353;51.386;7.028;2022-09-17T16:17:30;9.50;99.90
2687;DHT22;1353;51.386;7.028;2022-09-17T16:20:10;9.40;99.90
2687;DHT22;1353;51.386;7.028;2022-09-17T16:22:38;9.30;99.90
2687;DHT22;1353;51.386;7.028;2022-09-17T16:25:05;9.00;99.90
2687;DHT22;1353;51.386;7.028;2022-09-17T16:27:37;9.00;99.90
2687;DHT22;1353;51.386;7.028;2022-09-17T16:30:07;9.00;99.90
2687;DHT22;1353;51.386;7.028;2022-09-17T16:32:38;9.00;99.90
2687;DHT22;1353;51.386;7.028;2022-09-17T16:35:10;9.10;99.90
2687;DHT22;1353;51.386;7.028;2022-09-17T16:37:37;9.10;99.90
2687;DHT22;1353;51.386;7.028;2022-09-17T16:40:04;9.20;99.90
2687;DHT22;1353;51.386;7.028;2022-09-17T16:42:31;9.30;99.90
2687;DHT22;1353;51.386;7.028;2022-09-17T16:44:58;9.20;99.90
2687;DHT22;1353;51.386;7.028;2022-09-17T16:47:27;9.40;99.90
2687;DHT22;1353;51.386;7.028;2022-09-17T16:49:55;9.40;99.90
2687;DHT22;1353;51.386;7.028;2022-09-17T16:52:23;9.30;99.90
2687;DHT22;1353;51.386;7.028;2022-09-17T16:54:50;9.40;99.90
2687;DHT22;1353;51.386;7.028;2022-09-17T16:57:17;9.30;99.90